createdAt,value
2019-04-16T00:03:11.582Z,9.2
2019-04-16T00:08:34.268Z,9.3
2019-04-16T00:13:56.919Z,9.5
2019-04-16T00:19:19.574Z,9.7
2019-04-16T00:24:42.232Z,9.1
2019-04-16T00:30:05.375Z,9.4
2019-04-16T00:35:27.483Z,9.4
2019-04-16T00:40:50.235Z,9.6
2019-04-16T00:46:13.147Z,9.5
2019-04-16T00:51:36.014Z,10
2019-04-16T00:56:58.868Z,9.9
2019-04-16T01:02:21.653Z,9.4
2019-04-16T01:07:44.443Z,9.6
2019-04-16T01:13:07.380Z,9.7
2019-04-16T01:18:30.660Z,9.9
2019-04-16T01:23:53.285Z,10.1
2019-04-16T01:29:15.918Z,9.9
2019-04-16T01:34:38.577Z,9.4
2019-04-16T01:40:01.297Z,10.3
2019-04-16T01:45:23.940Z,9.7
2019-04-16T01:50:47.203Z,9.7
2019-04-16T01:56:09.836Z,9.6
2019-04-16T02:01:32.531Z,9.8
2019-04-16T02:06:57.100Z,10
2019-04-16T02:12:18.844Z,9.8
2019-04-16T02:17:41.476Z,9.8
2019-04-16T02:23:05.313Z,9.2
2019-04-16T02:28:28.947Z,9.6
2019-04-16T02:33:51.798Z,9.4
2019-04-16T02:39:14.481Z,9
2019-04-16T02:44:37.222Z,9.5
2019-04-16T02:49:59.958Z,9.5
2019-04-16T02:55:22.701Z,9.1
2019-04-16T03:00:48.848Z,8.9
2019-04-16T03:06:09.857Z,9.1
2019-04-16T03:11:32.465Z,8.7
2019-04-16T03:16:56.095Z,9.5
2019-04-16T03:22:19.036Z,9.4
2019-04-16T03:27:41.896Z,8.9
2019-04-16T03:33:09.457Z,9.1
2019-04-16T03:38:28.586Z,9.2
2019-04-16T03:43:51.351Z,9.7
2019-04-16T03:49:14.151Z,9.1
2019-04-16T03:54:36.852Z,9.3
2019-04-16T04:00:00.832Z,9.7
2019-04-16T04:05:23.490Z,9.5
2019-04-16T04:10:46.254Z,10
2019-04-16T04:16:10.021Z,8.9
2019-04-16T04:21:32.698Z,9
2019-04-16T04:26:55.537Z,9.8
2019-04-16T04:32:19.497Z,9.9
2019-04-16T04:37:42.387Z,9.1
2019-04-16T04:43:05.280Z,9.6
2019-04-16T04:48:28.121Z,9.6
2019-04-16T04:53:51.312Z,10
2019-04-16T04:59:13.746Z,9.3
2019-04-16T05:04:36.572Z,8.5
2019-04-16T05:09:59.392Z,8.4
2019-04-16T05:15:23.202Z,9
2019-04-16T05:20:46.930Z,8.6
2019-04-16T05:26:09.991Z,9.2
2019-04-16T05:31:32.365Z,8.8
2019-04-16T05:36:55.084Z,8.2
2019-04-16T05:42:17.886Z,8.6
2019-04-16T05:47:42.691Z,9
2019-04-16T05:53:08.227Z,8
2019-04-16T05:58:30.703Z,7.9
2019-04-16T06:03:53.267Z,8.7
2019-04-16T06:09:16.610Z,7.1
2019-04-16T06:14:39.266Z,8.8
2019-04-16T06:20:01.900Z,8.1
2019-04-16T06:25:24.656Z,8.5
2019-04-16T06:30:47.309Z,8.3
2019-04-16T06:36:11.045Z,8.3
2019-04-16T06:41:41.362Z,8.7
2019-04-16T06:46:57.369Z,7.8
2019-04-16T06:52:20.209Z,8.7
2019-04-16T06:57:43.825Z,8.1
2019-04-16T07:03:05.716Z,7.7
2019-04-16T07:08:37.346Z,8.5
2019-04-16T07:13:52.745Z,7.9
2019-04-16T07:19:17.703Z,8.3
2019-04-16T07:24:41.638Z,7.9
2019-04-16T07:30:06.502Z,8.5
2019-04-16T07:35:27.920Z,8
2019-04-16T07:40:50.625Z,8
2019-04-16T07:46:13.544Z,8.5
2019-04-16T07:51:36.712Z,8.9
2019-04-16T07:56:59.271Z,8.3
2019-04-16T08:02:22.402Z,8.3
2019-04-16T08:07:44.784Z,8.8
2019-04-16T08:13:07.531Z,9.1
2019-04-16T08:18:30.223Z,8.6
2019-04-16T08:23:53.129Z,8.9
2019-04-16T08:29:16.215Z,8.8
2019-04-16T08:34:38.839Z,9.3
2019-04-16T08:40:01.514Z,9.6
2019-04-16T08:45:24.111Z,9
2019-04-16T08:50:49.248Z,9.3
2019-04-16T08:56:10.982Z,9.8
2019-04-16T09:01:33.745Z,10
2019-04-16T09:07:10.031Z,9.8
2019-04-16T09:12:20.948Z,9.6
2019-04-16T09:17:43.564Z,10.2
2019-04-16T09:23:06.247Z,9.6
2019-04-16T09:28:31.038Z,10.2
2019-04-16T09:33:52.903Z,10.3
2019-04-16T09:39:15.994Z,10.2
2019-04-16T09:44:38.613Z,10.9
2019-04-16T09:50:01.420Z,10.6
2019-04-16T09:55:24.052Z,10.5
2019-04-16T10:00:47.127Z,10.7
2019-04-16T10:06:09.299Z,11
2019-04-16T10:11:32.632Z,11.2
2019-04-16T10:16:55.544Z,10.7
2019-04-16T10:22:18.179Z,11
2019-04-16T10:27:40.845Z,11.3
2019-04-16T10:33:03.778Z,10.9
2019-04-16T10:38:26.566Z,11.3
2019-04-16T10:43:49.191Z,11.5
2019-04-16T10:49:12.146Z,11.9
2019-04-16T10:54:37.146Z,11.5
2019-04-16T10:59:59.584Z,12
2019-04-16T11:05:23.264Z,12.3
2019-04-16T11:10:46.242Z,12.3
2019-04-16T11:16:08.872Z,12.7
2019-04-16T11:21:31.519Z,12.5
2019-04-16T11:26:54.078Z,12.6
2019-04-16T11:32:16.761Z,13
2019-04-16T11:37:43.462Z,12.8
2019-04-16T11:43:03.326Z,13
2019-04-16T11:48:27.930Z,13.4
2019-04-16T11:53:51.724Z,13.8
2019-04-16T11:59:14.423Z,13.7
2019-04-16T12:04:40.654Z,14.4
2019-04-16T12:10:03.297Z,15.4
2019-04-16T12:15:25.900Z,14.5
2019-04-16T12:20:48.599Z,14.2
2019-04-16T12:26:11.159Z,14.4
2019-04-16T12:31:34.198Z,14.8
2019-04-16T12:36:57.973Z,15.2
2019-04-16T12:42:21.618Z,14.9
2019-04-16T12:47:44.413Z,15.2
2019-04-16T12:53:06.819Z,16.1
2019-04-16T12:58:29.567Z,15.4
2019-04-16T13:03:53.289Z,16
2019-04-16T13:09:15.173Z,15.2
2019-04-16T13:14:37.981Z,15.7
2019-04-16T13:20:00.557Z,15.4
2019-04-16T13:25:23.154Z,16.1
2019-04-16T13:30:45.811Z,16.5
2019-04-16T13:36:08.589Z,15.9
2019-04-16T13:41:31.061Z,16
2019-04-16T13:46:53.731Z,17
2019-04-16T13:52:16.952Z,16.700001
2019-04-16T13:57:40.548Z,17
2019-04-16T14:03:03.191Z,16.799999
2019-04-16T14:08:25.918Z,16.700001
2019-04-16T14:13:50.137Z,16.5
2019-04-16T14:19:12.198Z,17
2019-04-16T14:24:34.916Z,17
2019-04-16T14:29:59.324Z,16.700001
2019-04-16T14:35:32.716Z,17.299999
2019-04-16T14:40:45.003Z,17
2019-04-16T14:46:09.078Z,18.4
2019-04-16T14:51:31.369Z,17.299999
2019-04-16T14:56:55.049Z,18.700001
2019-04-16T15:02:17.690Z,17.9
2019-04-16T15:07:43.753Z,18.9
2019-04-16T15:13:04.161Z,18.200001
2019-04-16T15:18:27.080Z,18
2019-04-16T15:23:49.581Z,18.799999
2019-04-16T15:29:13.178Z,18.9
2019-04-16T15:34:41.718Z,18.4
2019-04-16T15:40:00.296Z,19.299999
2019-04-16T15:45:25.457Z,19.5
2019-04-16T15:50:45.531Z,19
2019-04-16T15:56:08.236Z,18.799999
2019-04-16T16:01:30.849Z,19.5
2019-04-16T16:06:53.551Z,19.4
2019-04-16T16:12:16.216Z,19.6
2019-04-16T16:17:38.872Z,18.700001
2019-04-16T16:23:01.631Z,18.799999
2019-04-16T16:28:24.153Z,19.6
2019-04-16T16:33:46.802Z,19
2019-04-16T16:39:09.474Z,18.799999
2019-04-16T16:44:32.214Z,20.1
2019-04-16T16:49:54.848Z,19.700001
2019-04-16T16:55:17.568Z,19.9
2019-04-16T17:00:40.319Z,19.5
2019-04-16T17:06:02.982Z,19.4
2019-04-16T17:11:25.743Z,19.6
2019-04-16T17:16:48.502Z,19.5
2019-04-16T17:22:11.260Z,18.4
2019-04-16T17:27:33.873Z,18.700001
2019-04-16T17:32:56.519Z,18.5
2019-04-16T17:38:19.508Z,18.1
2019-04-16T17:43:42.267Z,18
2019-04-16T17:49:05.309Z,18.9
2019-04-16T17:54:28.044Z,18.799999
2019-04-16T17:59:50.736Z,18.700001
2019-04-16T18:05:13.465Z,18.700001
2019-04-16T18:10:36.158Z,18.5
2019-04-16T18:15:58.821Z,18
2019-04-16T18:21:21.472Z,17.799999
2019-04-16T18:26:45.054Z,17.200001
2019-04-16T18:32:07.756Z,18.4
2019-04-16T18:37:30.451Z,17.700001
2019-04-16T18:42:53.083Z,18.200001
2019-04-16T18:48:15.693Z,17.799999
2019-04-16T18:53:40.165Z,17.700001
2019-04-16T18:59:01.945Z,17.9
2019-04-16T19:04:24.991Z,19.4
2019-04-16T19:09:47.660Z,18.700001
2019-04-16T19:15:10.819Z,18.5
2019-04-16T19:20:33.488Z,18.6
2019-04-16T19:25:56.835Z,18.299999
2019-04-16T19:31:22.476Z,19
2019-04-16T19:36:43.023Z,18
2019-04-16T19:42:05.727Z,18.700001
2019-04-16T19:47:28.618Z,17.9
2019-04-16T19:52:51.398Z,18.6
2019-04-16T19:58:19.351Z,18.5
2019-04-16T20:03:43.375Z,17.799999
2019-04-16T20:09:05.185Z,18.200001
2019-04-16T20:14:35.108Z,18
2019-04-16T20:19:54.419Z,18.5
2019-04-16T20:25:17.383Z,18.700001
2019-04-16T20:30:40.224Z,17.700001
2019-04-16T20:36:03.041Z,17.799999
2019-04-16T20:41:25.793Z,18.200001
2019-04-16T20:46:48.566Z,18.1
2019-04-16T20:52:11.734Z,18.4
2019-04-16T20:57:34.609Z,18.200001
2019-04-16T21:02:57.445Z,18
2019-04-16T21:08:24.129Z,17.200001
2019-04-16T21:13:43.970Z,17.799999
2019-04-16T21:19:21.582Z,18
2019-04-16T21:24:30.552Z,18.5
2019-04-16T21:29:54.087Z,17.299999
2019-04-16T21:35:16.871Z,17.799999
2019-04-16T21:40:43.099Z,17.700001
2019-04-16T21:46:05.820Z,18.4
2019-04-16T21:51:28.627Z,19.200001
2019-04-16T21:56:54.662Z,19.6
2019-04-16T22:02:15.101Z,19
2019-04-16T22:07:37.805Z,18
2019-04-16T22:13:00.521Z,18.799999
2019-04-16T22:18:23.340Z,19
2019-04-16T22:23:50.077Z,19.299999
2019-04-16T22:29:09.915Z,18.4
2019-04-16T22:34:33.560Z,18.799999
2019-04-16T22:39:56.237Z,18
2019-04-16T22:45:19.014Z,18.9
2019-04-16T22:50:41.770Z,18.299999
2019-04-16T22:56:04.767Z,17.799999
2019-04-16T23:01:27.273Z,18
2019-04-16T23:06:50.959Z,18
2019-04-16T23:12:13.664Z,18.4
2019-04-16T23:17:36.390Z,18.4
2019-04-16T23:22:59.118Z,17.700001
2019-04-16T23:28:22.458Z,17.9
2019-04-16T23:33:45.240Z,17.4
2019-04-16T23:39:07.943Z,18.200001
2019-04-16T23:44:30.695Z,17
2019-04-16T23:49:53.377Z,17.799999
2019-04-16T23:55:17.596Z,17.5
